sensor_id;sensor_type;location;lat;lon;timestamp;P1;durP1;ratioP1;P2;durP2;ratioP2
57842;SDS011;43673;51.058;3.734;2023-05-10T00:02:06;27.63;;;13.98;;
57842;SDS011;43673;51.058;3.734;2023-05-10T00:04:32;26.45;;;15.18;;
57842;SDS011;43673;51.058;3.734;2023-05-10T00:06:58;35.17;;;16.58;;
57842;SDS011;43673;51.058;3.734;2023-05-10T00:09:24;31.25;;;15.00;;
57842;SDS011;43673;51.058;3.734;2023-05-10T00:11:49;27.02;;;17.73;;
57842;SDS011;43673;51.058;3.734;2023-05-10T00:14:15;30.15;;;16.20;;
57842;SDS011;43673;51.058;3.734;2023-05-10T00:16:41;29.98;;;16.17;;
57842;SDS011;43673;51.058;3.734;2023-05-10T00:19:07;28.13;;;15.23;;
57842;SDS011;43673;51.058;3.734;2023-05-10T00:21:32;28.85;;;15.70;;
57842;SDS011;43673;51.058;3.734;2023-05-10T00:23:58;29.50;;;16.17;;
57842;SDS011;43673;51.058;3.734;2023-05-10T00:26:24;28.55;;;15.77;;
57842;SDS011;43673;51.058;3.734;2023-05-10T00:28:50;26.80;;;16.15;;
57842;SDS011;43673;51.058;3.734;2023-05-10T00:31:16;33.13;;;18.45;;
57842;SDS011;43673;51.058;3.734;2023-05-10T00:33:42;35.58;;;18.17;;
57842;SDS011;43673;51.058;3.734;2023-05-10T00:36:07;32.72;;;19.73;;
57842;SDS011;43673;51.058;3.734;2023-05-10T00:38:33;30.90;;;18.38;;
57842;SDS011;43673;51.058;3.734;2023-05-10T00:40:59;32.33;;;20.02;;
57842;SDS011;43673;51.058;3.734;2023-05-10T00:43:24;37.47;;;21.48;;
57842;SDS011;43673;51.058;3.734;2023-05-10T00:45:50;33.50;;;19.70;;
57842;SDS011;43673;51.058;3.734;2023-05-10T00:48:17;35.22;;;21.15;;
57842;SDS011;43673;51.058;3.734;2023-05-10T00:50:43;43.92;;;22.90;;
57842;SDS011;43673;51.058;3.734;2023-05-10T00:53:10;34.35;;;18.55;;
57842;SDS011;43673;51.058;3.734;2023-05-10T00:55:36;44.60;;;21.75;;
57842;SDS011;43673;51.058;3.734;2023-05-10T00:58:02;36.28;;;20.70;;
57842;SDS011;43673;51.058;3.734;2023-05-10T01:00:28;35.22;;;23.38;;
57842;SDS011;43673;51.058;3.734;2023-05-10T01:02:54;36.90;;;21.65;;
57842;SDS011;43673;51.058;3.734;2023-05-10T01:05:20;35.80;;;20.48;;
57842;SDS011;43673;51.058;3.734;2023-05-10T01:08:09;36.72;;;21.95;;
57842;SDS011;43673;51.058;3.734;2023-05-10T01:10:35;37.80;;;22.98;;
57842;SDS011;43673;51.058;3.734;2023-05-10T01:14:10;36.40;;;21.83;;
57842;SDS011;43673;51.058;3.734;2023-05-10T01:16:56;43.45;;;24.52;;
57842;SDS011;43673;51.058;3.734;2023-05-10T01:19:23;40.70;;;22.75;;
57842;SDS011;43673;51.058;3.734;2023-05-10T01:37:02;37.90;;;24.02;;
57842;SDS011;43673;51.058;3.734;2023-05-10T01:42:39;36.60;;;23.50;;
57842;SDS011;43673;51.058;3.734;2023-05-10T01:50:48;40.45;;;24.35;;
57842;SDS011;43673;51.058;3.734;2023-05-10T01:53:23;41.20;;;24.75;;
57842;SDS011;43673;51.058;3.734;2023-05-10T02:04:07;40.00;;;24.40;;
57842;SDS011;43673;51.058;3.734;2023-05-10T02:06:34;38.67;;;24.42;;
57842;SDS011;43673;51.058;3.734;2023-05-10T02:09:01;43.55;;;23.15;;
57842;SDS011;43673;51.058;3.734;2023-05-10T02:11:28;39.35;;;22.90;;
57842;SDS011;43673;51.058;3.734;2023-05-10T02:13:54;45.65;;;24.20;;
57842;SDS011;43673;51.058;3.734;2023-05-10T02:16:32;42.80;;;22.80;;
57842;SDS011;43673;51.058;3.734;2023-05-10T02:19:00;41.83;;;23.50;;
57842;SDS011;43673;51.058;3.734;2023-05-10T02:21:27;41.72;;;24.25;;
57842;SDS011;43673;51.058;3.734;2023-05-10T02:23:54;36.85;;;22.27;;
57842;SDS011;43673;51.058;3.734;2023-05-10T02:26:22;37.50;;;21.98;;
57842;SDS011;43673;51.058;3.734;2023-05-10T02:28:49;37.38;;;22.15;;
57842;SDS011;43673;51.058;3.734;2023-05-10T02:31:16;38.33;;;22.52;;
57842;SDS011;43673;51.058;3.734;2023-05-10T02:33:43;33.20;;;21.35;;
57842;SDS011;43673;51.058;3.734;2023-05-10T02:36:11;34.03;;;20.77;;
57842;SDS011;43673;51.058;3.734;2023-05-10T02:38:38;39.78;;;21.63;;
57842;SDS011;43673;51.058;3.734;2023-05-10T02:41:05;41.85;;;21.95;;
57842;SDS011;43673;51.058;3.734;2023-05-10T02:43:33;37.63;;;20.77;;
57842;SDS011;43673;51.058;3.734;2023-05-10T02:46:00;33.45;;;20.42;;
57842;SDS011;43673;51.058;3.734;2023-05-10T02:48:26;33.60;;;21.30;;
57842;SDS011;43673;51.058;3.734;2023-05-10T02:50:52;30.10;;;18.92;;
57842;SDS011;43673;51.058;3.734;2023-05-10T02:53:22;30.10;;;18.70;;
57842;SDS011;43673;51.058;3.734;2023-05-10T02:56:01;31.85;;;17.92;;
57842;SDS011;43673;51.058;3.734;2023-05-10T02:58:32;30.60;;;18.83;;
57842;SDS011;43673;51.058;3.734;2023-05-10T03:00:59;35.22;;;18.80;;
57842;SDS011;43673;51.058;3.734;2023-05-10T03:03:25;32.90;;;20.08;;
57842;SDS011;43673;51.058;3.734;2023-05-10T03:05:51;33.65;;;20.83;;
57842;SDS011;43673;51.058;3.734;2023-05-10T03:08:20;32.75;;;19.15;;
57842;SDS011;43673;51.058;3.734;2023-05-10T03:10:55;33.10;;;19.98;;
57842;SDS011;43673;51.058;3.734;2023-05-10T03:13:31;32.35;;;18.58;;
57842;SDS011;43673;51.058;3.734;2023-05-10T03:16:12;28.90;;;19.00;;
57842;SDS011;43673;51.058;3.734;2023-05-10T03:18:59;29.20;;;18.60;;
57842;SDS011;43673;51.058;3.734;2023-05-10T03:21:32;29.42;;;18.55;;
57842;SDS011;43673;51.058;3.734;2023-05-10T03:24:04;31.67;;;19.20;;
57842;SDS011;43673;51.058;3.734;2023-05-10T03:26:32;26.50;;;18.00;;
57842;SDS011;43673;51.058;3.734;2023-05-10T03:28:59;32.40;;;20.45;;
57842;SDS011;43673;51.058;3.734;2023-05-10T03:31:26;31.58;;;19.10;;
57842;SDS011;43673;51.058;3.734;2023-05-10T03:33:52;28.25;;;19.17;;
57842;SDS011;43673;51.058;3.734;2023-05-10T03:36:18;35.03;;;17.90;;
57842;SDS011;43673;51.058;3.734;2023-05-10T03:38:44;28.17;;;17.48;;
57842;SDS011;43673;51.058;3.734;2023-05-10T03:41:10;28.95;;;17.25;;
57842;SDS011;43673;51.058;3.734;2023-05-10T03:43:36;28.20;;;17.52;;
57842;SDS011;43673;51.058;3.734;2023-05-10T03:46:05;28.23;;;18.13;;
57842;SDS011;43673;51.058;3.734;2023-05-10T03:48:33;34.97;;;20.27;;
57842;SDS011;43673;51.058;3.734;2023-05-10T03:50:59;27.73;;;17.63;;
57842;SDS011;43673;51.058;3.734;2023-05-10T03:53:25;29.98;;;16.75;;
57842;SDS011;43673;51.058;3.734;2023-05-10T03:55:51;26.67;;;17.60;;
57842;SDS011;43673;51.058;3.734;2023-05-10T03:58:17;30.15;;;18.98;;
57842;SDS011;43673;51.058;3.734;2023-05-10T04:00:43;29.98;;;18.90;;
57842;SDS011;43673;51.058;3.734;2023-05-10T04:03:10;31.98;;;19.17;;
57842;SDS011;43673;51.058;3.734;2023-05-10T04:05:37;32.20;;;19.15;;
57842;SDS011;43673;51.058;3.734;2023-05-10T04:08:03;31.58;;;19.58;;
57842;SDS011;43673;51.058;3.734;2023-05-10T04:10:29;32.58;;;20.08;;
57842;SDS011;43673;51.058;3.734;2023-05-10T04:12:55;36.65;;;22.08;;
57842;SDS011;43673;51.058;3.734;2023-05-10T04:15:20;35.00;;;21.77;;
57842;SDS011;43673;51.058;3.734;2023-05-10T04:17:46;36.78;;;23.17;;
57842;SDS011;43673;51.058;3.734;2023-05-10T04:20:12;44.28;;;23.00;;
57842;SDS011;43673;51.058;3.734;2023-05-10T04:22:38;42.42;;;25.33;;
57842;SDS011;43673;51.058;3.734;2023-05-10T04:25:04;43.25;;;25.50;;
57842;SDS011;43673;51.058;3.734;2023-05-10T04:27:31;41.53;;;25.90;;
57842;SDS011;43673;51.058;3.734;2023-05-10T04:29:56;43.97;;;26.98;;
57842;SDS011;43673;51.058;3.734;2023-05-10T04:32:22;42.20;;;27.30;;
57842;SDS011;43673;51.058;3.734;2023-05-10T04:34:48;46.35;;;26.20;;
57842;SDS011;43673;51.058;3.734;2023-05-10T04:37:14;44.75;;;26.20;;
57842;SDS011;43673;51.058;3.734;2023-05-10T04:39:39;45.08;;;27.33;;
57842;SDS011;43673;51.058;3.734;2023-05-10T04:42:05;45.95;;;27.45;;
57842;SDS011;43673;51.058;3.734;2023-05-10T04:44:31;45.50;;;26.58;;
57842;SDS011;43673;51.058;3.734;2023-05-10T04:46:57;40.90;;;25.02;;
57842;SDS011;43673;51.058;3.734;2023-05-10T04:49:23;48.40;;;27.17;;
57842;SDS011;43673;51.058;3.734;2023-05-10T04:51:49;49.35;;;28.10;;
57842;SDS011;43673;51.058;3.734;2023-05-10T04:54:15;45.40;;;26.90;;
57842;SDS011;43673;51.058;3.734;2023-05-10T04:56:40;47.20;;;28.27;;
57842;SDS011;43673;51.058;3.734;2023-05-10T04:59:06;49.90;;;28.23;;
57842;SDS011;43673;51.058;3.734;2023-05-10T05:01:32;48.03;;;28.90;;
57842;SDS011;43673;51.058;3.734;2023-05-10T05:03:58;45.05;;;27.98;;
57842;SDS011;43673;51.058;3.734;2023-05-10T05:06:24;53.97;;;28.95;;
57842;SDS011;43673;51.058;3.734;2023-05-10T05:08:50;50.97;;;27.95;;
57842;SDS011;43673;51.058;3.734;2023-05-10T05:11:16;45.80;;;29.58;;
57842;SDS011;43673;51.058;3.734;2023-05-10T05:13:42;50.72;;;29.48;;
57842;SDS011;43673;51.058;3.734;2023-05-10T05:16:08;51.92;;;28.40;;
57842;SDS011;43673;51.058;3.734;2023-05-10T05:18:35;47.97;;;28.65;;
57842;SDS011;43673;51.058;3.734;2023-05-10T05:21:00;50.17;;;29.30;;
57842;SDS011;43673;51.058;3.734;2023-05-10T05:23:26;47.85;;;27.90;;
57842;SDS011;43673;51.058;3.734;2023-05-10T05:25:52;49.38;;;28.88;;
57842;SDS011;43673;51.058;3.734;2023-05-10T05:28:21;53.90;;;29.25;;
57842;SDS011;43673;51.058;3.734;2023-05-10T05:30:47;52.70;;;29.58;;
57842;SDS011;43673;51.058;3.734;2023-05-10T05:33:13;48.83;;;29.52;;
57842;SDS011;43673;51.058;3.734;2023-05-10T05:35:40;44.97;;;27.38;;
57842;SDS011;43673;51.058;3.734;2023-05-10T05:38:07;49.65;;;28.08;;
57842;SDS011;43673;51.058;3.734;2023-05-10T05:40:33;51.53;;;29.55;;
57842;SDS011;43673;51.058;3.734;2023-05-10T05:42:59;49.55;;;28.02;;
57842;SDS011;43673;51.058;3.734;2023-05-10T05:45:25;46.45;;;27.35;;
57842;SDS011;43673;51.058;3.734;2023-05-10T05:47:50;49.72;;;28.65;;
57842;SDS011;43673;51.058;3.734;2023-05-10T05:50:16;48.88;;;26.23;;
57842;SDS011;43673;51.058;3.734;2023-05-10T05:52:42;47.20;;;28.00;;
57842;SDS011;43673;51.058;3.734;2023-05-10T05:55:08;51.75;;;27.38;;
57842;SDS011;43673;51.058;3.734;2023-05-10T05:57:33;45.42;;;26.33;;
57842;SDS011;43673;51.058;3.734;2023-05-10T05:59:59;43.63;;;26.08;;
57842;SDS011;43673;51.058;3.734;2023-05-10T06:02:25;46.75;;;25.10;;
57842;SDS011;43673;51.058;3.734;2023-05-10T06:04:50;42.30;;;24.85;;
57842;SDS011;43673;51.058;3.734;2023-05-10T06:07:16;43.70;;;25.02;;
57842;SDS011;43673;51.058;3.734;2023-05-10T06:09:42;39.75;;;24.77;;
57842;SDS011;43673;51.058;3.734;2023-05-10T06:12:07;40.80;;;25.25;;
57842;SDS011;43673;51.058;3.734;2023-05-10T06:14:33;42.67;;;25.77;;
57842;SDS011;43673;51.058;3.734;2023-05-10T06:16:59;44.90;;;28.65;;
57842;SDS011;43673;51.058;3.734;2023-05-10T06:19:25;50.28;;;27.88;;
57842;SDS011;43673;51.058;3.734;2023-05-10T06:21:51;49.35;;;29.27;;
57842;SDS011;43673;51.058;3.734;2023-05-10T06:24:17;41.55;;;26.20;;
57842;SDS011;43673;51.058;3.734;2023-05-10T06:26:42;40.88;;;26.25;;
57842;SDS011;43673;51.058;3.734;2023-05-10T06:29:08;44.00;;;27.92;;
57842;SDS011;43673;51.058;3.734;2023-05-10T06:31:34;50.67;;;30.05;;
57842;SDS011;43673;51.058;3.734;2023-05-10T06:33:59;44.05;;;26.95;;
57842;SDS011;43673;51.058;3.734;2023-05-10T06:36:25;51.97;;;27.05;;
57842;SDS011;43673;51.058;3.734;2023-05-10T06:38:52;46.13;;;26.10;;
57842;SDS011;43673;51.058;3.734;2023-05-10T06:41:18;47.42;;;27.75;;
57842;SDS011;43673;51.058;3.734;2023-05-10T06:43:44;43.53;;;24.27;;
57842;SDS011;43673;51.058;3.734;2023-05-10T06:46:09;40.38;;;24.33;;
57842;SDS011;43673;51.058;3.734;2023-05-10T06:48:35;36.33;;;22.15;;
57842;SDS011;43673;51.058;3.734;2023-05-10T06:51:01;35.40;;;22.88;;
57842;SDS011;43673;51.058;3.734;2023-05-10T06:53:27;32.88;;;21.95;;
57842;SDS011;43673;51.058;3.734;2023-05-10T06:55:52;31.30;;;20.38;;
57842;SDS011;43673;51.058;3.734;2023-05-10T06:58:18;25.95;;;19.60;;
57842;SDS011;43673;51.058;3.734;2023-05-10T07:00:44;33.50;;;19.60;;
57842;SDS011;43673;51.058;3.734;2023-05-10T07:03:10;30.00;;;18.60;;
57842;SDS011;43673;51.058;3.734;2023-05-10T07:05:36;30.05;;;20.83;;
57842;SDS011;43673;51.058;3.734;2023-05-10T07:08:01;32.40;;;19.88;;
57842;SDS011;43673;51.058;3.734;2023-05-10T07:10:35;29.52;;;19.75;;
57842;SDS011;43673;51.058;3.734;2023-05-10T07:13:00;33.20;;;22.30;;
57842;SDS011;43673;51.058;3.734;2023-05-10T07:15:26;36.28;;;24.77;;
57842;SDS011;43673;51.058;3.734;2023-05-10T07:17:53;39.20;;;26.50;;
57842;SDS011;43673;51.058;3.734;2023-05-10T07:20:18;45.75;;;28.67;;
57842;SDS011;43673;51.058;3.734;2023-05-10T07:22:44;45.28;;;27.70;;
57842;SDS011;43673;51.058;3.734;2023-05-10T07:25:10;45.28;;;29.10;;
57842;SDS011;43673;51.058;3.734;2023-05-10T07:27:35;41.08;;;26.40;;
57842;SDS011;43673;51.058;3.734;2023-05-10T07:30:01;44.90;;;27.45;;
57842;SDS011;43673;51.058;3.734;2023-05-10T07:32:27;49.03;;;29.17;;
57842;SDS011;43673;51.058;3.734;2023-05-10T07:34:53;42.53;;;27.25;;
57842;SDS011;43673;51.058;3.734;2023-05-10T07:37:19;46.22;;;26.08;;
57842;SDS011;43673;51.058;3.734;2023-05-10T07:39:45;46.50;;;26.27;;
57842;SDS011;43673;51.058;3.734;2023-05-10T07:42:10;51.85;;;26.75;;
57842;SDS011;43673;51.058;3.734;2023-05-10T07:44:36;45.92;;;25.40;;
57842;SDS011;43673;51.058;3.734;2023-05-10T07:47:01;44.63;;;27.65;;
57842;SDS011;43673;51.058;3.734;2023-05-10T07:49:27;48.72;;;26.58;;
57842;SDS011;43673;51.058;3.734;2023-05-10T07:51:53;43.85;;;24.90;;
57842;SDS011;43673;51.058;3.734;2023-05-10T07:54:19;42.45;;;23.45;;
57842;SDS011;43673;51.058;3.734;2023-05-10T07:56:44;40.47;;;24.35;;
57842;SDS011;43673;51.058;3.734;2023-05-10T07:59:14;44.35;;;24.70;;
57842;SDS011;43673;51.058;3.734;2023-05-10T08:01:43;43.38;;;25.65;;
57842;SDS011;43673;51.058;3.734;2023-05-10T08:04:09;39.20;;;25.23;;
57842;SDS011;43673;51.058;3.734;2023-05-10T08:06:36;46.83;;;25.30;;
57842;SDS011;43673;51.058;3.734;2023-05-10T08:09:02;41.75;;;25.63;;
57842;SDS011;43673;51.058;3.734;2023-05-10T08:11:27;39.30;;;22.73;;
57842;SDS011;43673;51.058;3.734;2023-05-10T08:13:53;44.50;;;24.23;;
57842;SDS011;43673;51.058;3.734;2023-05-10T08:16:19;42.00;;;23.80;;
57842;SDS011;43673;51.058;3.734;2023-05-10T08:18:45;38.00;;;22.48;;
57842;SDS011;43673;51.058;3.734;2023-05-10T08:21:12;39.33;;;24.80;;
57842;SDS011;43673;51.058;3.734;2023-05-10T08:23:38;37.75;;;23.63;;
57842;SDS011;43673;51.058;3.734;2023-05-10T08:26:04;42.10;;;25.23;;
57842;SDS011;43673;51.058;3.734;2023-05-10T08:28:31;45.47;;;24.48;;
57842;SDS011;43673;51.058;3.734;2023-05-10T08:30:57;39.30;;;26.00;;
57842;SDS011;43673;51.058;3.734;2023-05-10T08:33:23;40.22;;;25.10;;
57842;SDS011;43673;51.058;3.734;2023-05-10T08:35:48;41.75;;;24.30;;
57842;SDS011;43673;51.058;3.734;2023-05-10T08:38:14;47.85;;;25.38;;
57842;SDS011;43673;51.058;3.734;2023-05-10T08:40:43;41.80;;;25.25;;
57842;SDS011;43673;51.058;3.734;2023-05-10T08:43:11;40.90;;;22.65;;
57842;SDS011;43673;51.058;3.734;2023-05-10T08:45:40;39.15;;;23.80;;
57842;SDS011;43673;51.058;3.734;2023-05-10T08:48:10;41.38;;;22.95;;
57842;SDS011;43673;51.058;3.734;2023-05-10T08:50:37;38.50;;;21.35;;
57842;SDS011;43673;51.058;3.734;2023-05-10T08:53:11;39.67;;;21.63;;
57842;SDS011;43673;51.058;3.734;2023-05-10T08:55:39;37.15;;;21.90;;
57842;SDS011;43673;51.058;3.734;2023-05-10T08:58:07;39.15;;;20.73;;
57842;SDS011;43673;51.058;3.734;2023-05-10T09:00:33;33.92;;;19.75;;
57842;SDS011;43673;51.058;3.734;2023-05-10T09:03:02;37.25;;;20.42;;
57842;SDS011;43673;51.058;3.734;2023-05-10T09:05:29;37.47;;;22.13;;
57842;SDS011;43673;51.058;3.734;2023-05-10T09:07:55;43.40;;;21.50;;
57842;SDS011;43673;51.058;3.734;2023-05-10T09:10:20;42.53;;;20.50;;
57842;SDS011;43673;51.058;3.734;2023-05-10T09:12:48;43.28;;;22.15;;
57842;SDS011;43673;51.058;3.734;2023-05-10T09:15:15;37.13;;;20.75;;
57842;SDS011;43673;51.058;3.734;2023-05-10T09:17:41;42.00;;;21.05;;
57842;SDS011;43673;51.058;3.734;2023-05-10T09:20:08;37.42;;;21.90;;
57842;SDS011;43673;51.058;3.734;2023-05-10T09:22:35;36.25;;;22.08;;
57842;SDS011;43673;51.058;3.734;2023-05-10T09:25:08;36.10;;;20.83;;
57842;SDS011;43673;51.058;3.734;2023-05-10T09:27:38;32.20;;;19.42;;
57842;SDS011;43673;51.058;3.734;2023-05-10T09:30:05;35.22;;;18.42;;
57842;SDS011;43673;51.058;3.734;2023-05-10T09:32:39;38.13;;;20.77;;
57842;SDS011;43673;51.058;3.734;2023-05-10T09:35:07;38.60;;;20.10;;
57842;SDS011;43673;51.058;3.734;2023-05-10T09:37:40;41.17;;;21.83;;
57842;SDS011;43673;51.058;3.734;2023-05-10T09:40:14;32.72;;;18.77;;
57842;SDS011;43673;51.058;3.734;2023-05-10T09:45:21;30.13;;;18.75;;
57842;SDS011;43673;51.058;3.734;2023-05-10T09:47:48;27.40;;;17.90;;
57842;SDS011;43673;51.058;3.734;2023-05-10T09:50:16;28.85;;;17.95;;
57842;SDS011;43673;51.058;3.734;2023-05-10T09:52:46;24.92;;;17.40;;
57842;SDS011;43673;51.058;3.734;2023-05-10T09:55:14;22.42;;;16.95;;
57842;SDS011;43673;51.058;3.734;2023-05-10T09:57:40;24.20;;;16.10;;
57842;SDS011;43673;51.058;3.734;2023-05-10T10:00:06;23.20;;;15.82;;
57842;SDS011;43673;51.058;3.734;2023-05-10T10:02:37;21.35;;;15.07;;
57842;SDS011;43673;51.058;3.734;2023-05-10T10:05:03;23.05;;;15.30;;
57842;SDS011;43673;51.058;3.734;2023-05-10T10:07:31;23.70;;;16.00;;
57842;SDS011;43673;51.058;3.734;2023-05-10T10:09:58;17.67;;;13.43;;
57842;SDS011;43673;51.058;3.734;2023-05-10T10:12:27;19.55;;;13.70;;
57842;SDS011;43673;51.058;3.734;2023-05-10T10:17:23;20.35;;;14.43;;
57842;SDS011;43673;51.058;3.734;2023-05-10T10:20:00;20.77;;;13.57;;
57842;SDS011;43673;51.058;3.734;2023-05-10T10:22:28;19.98;;;14.30;;
57842;SDS011;43673;51.058;3.734;2023-05-10T10:24:54;22.75;;;13.48;;
57842;SDS011;43673;51.058;3.734;2023-05-10T10:27:24;17.08;;;13.23;;
57842;SDS011;43673;51.058;3.734;2023-05-10T10:35:30;19.10;;;13.07;;
57842;SDS011;43673;51.058;3.734;2023-05-10T10:37:57;16.77;;;12.27;;
57842;SDS011;43673;51.058;3.734;2023-05-10T10:40:25;17.90;;;12.75;;
57842;SDS011;43673;51.058;3.734;2023-05-10T10:42:55;19.17;;;13.75;;
57842;SDS011;43673;51.058;3.734;2023-05-10T10:45:23;26.67;;;15.20;;
57842;SDS011;43673;51.058;3.734;2023-05-10T10:48:20;19.35;;;12.38;;
57842;SDS011;43673;51.058;3.734;2023-05-10T10:50:55;21.75;;;13.52;;
57842;SDS011;43673;51.058;3.734;2023-05-10T10:53:23;22.10;;;13.75;;
57842;SDS011;43673;51.058;3.734;2023-05-10T10:56:01;21.83;;;14.98;;
57842;SDS011;43673;51.058;3.734;2023-05-10T10:58:41;24.23;;;13.90;;
57842;SDS011;43673;51.058;3.734;2023-05-10T11:01:17;24.63;;;15.10;;
57842;SDS011;43673;51.058;3.734;2023-05-10T11:06:34;24.00;;;15.65;;
57842;SDS011;43673;51.058;3.734;2023-05-10T11:09:12;26.88;;;15.35;;
57842;SDS011;43673;51.058;3.734;2023-05-10T11:11:52;24.85;;;16.65;;
57842;SDS011;43673;51.058;3.734;2023-05-10T11:17:26;24.33;;;15.57;;
57842;SDS011;43673;51.058;3.734;2023-05-10T11:20:06;24.90;;;16.83;;
57842;SDS011;43673;51.058;3.734;2023-05-10T11:22:54;28.95;;;17.83;;
57842;SDS011;43673;51.058;3.734;2023-05-10T11:25:20;26.35;;;18.95;;
57842;SDS011;43673;51.058;3.734;2023-05-10T11:27:51;31.98;;;18.23;;
57842;SDS011;43673;51.058;3.734;2023-05-10T11:30:17;34.90;;;20.65;;
57842;SDS011;43673;51.058;3.734;2023-05-10T11:32:42;29.08;;;19.55;;
57842;SDS011;43673;51.058;3.734;2023-05-10T11:35:12;32.90;;;22.02;;
57842;SDS011;43673;51.058;3.734;2023-05-10T11:37:41;35.80;;;23.40;;
57842;SDS011;43673;51.058;3.734;2023-05-10T11:40:09;30.98;;;22.92;;
57842;SDS011;43673;51.058;3.734;2023-05-10T11:42:36;33.60;;;22.05;;
57842;SDS011;43673;51.058;3.734;2023-05-10T11:45:02;34.72;;;24.20;;
57842;SDS011;43673;51.058;3.734;2023-05-10T11:47:28;33.95;;;22.48;;
57842;SDS011;43673;51.058;3.734;2023-05-10T11:49:54;31.52;;;22.25;;
57842;SDS011;43673;51.058;3.734;2023-05-10T11:52:20;34.92;;;22.52;;
57842;SDS011;43673;51.058;3.734;2023-05-10T11:54:54;34.75;;;22.30;;
57842;SDS011;43673;51.058;3.734;2023-05-10T11:57:25;28.33;;;21.60;;
57842;SDS011;43673;51.058;3.734;2023-05-10T11:59:56;30.40;;;21.25;;
57842;SDS011;43673;51.058;3.734;2023-05-10T12:02:22;29.38;;;21.55;;
57842;SDS011;43673;51.058;3.734;2023-05-10T12:04:54;27.13;;;21.20;;
57842;SDS011;43673;51.058;3.734;2023-05-10T12:07:25;30.40;;;20.55;;
57842;SDS011;43673;51.058;3.734;2023-05-10T12:12:49;26.35;;;20.15;;
57842;SDS011;43673;51.058;3.734;2023-05-10T12:15:20;33.35;;;18.55;;
57842;SDS011;43673;51.058;3.734;2023-05-10T12:25:33;29.00;;;18.02;;
57842;SDS011;43673;51.058;3.734;2023-05-10T12:28:05;23.67;;;18.13;;
57842;SDS011;43673;51.058;3.734;2023-05-10T12:30:33;30.83;;;18.67;;
57842;SDS011;43673;51.058;3.734;2023-05-10T12:33:13;25.42;;;19.88;;
57842;SDS011;43673;51.058;3.734;2023-05-10T12:35:50;31.80;;;18.83;;
57842;SDS011;43673;51.058;3.734;2023-05-10T12:41:06;26.55;;;18.27;;
57842;SDS011;43673;51.058;3.734;2023-05-10T12:48:35;36.25;;;21.00;;
57842;SDS011;43673;51.058;3.734;2023-05-10T12:51:02;31.52;;;19.08;;
57842;SDS011;43673;51.058;3.734;2023-05-10T12:53:28;31.05;;;20.95;;
57842;SDS011;43673;51.058;3.734;2023-05-10T12:55:54;32.97;;;20.35;;
57842;SDS011;43673;51.058;3.734;2023-05-10T12:58:20;27.48;;;19.88;;
57842;SDS011;43673;51.058;3.734;2023-05-10T13:00:46;28.13;;;18.75;;
57842;SDS011;43673;51.058;3.734;2023-05-10T13:03:12;29.10;;;20.25;;
57842;SDS011;43673;51.058;3.734;2023-05-10T13:05:38;30.15;;;20.08;;
57842;SDS011;43673;51.058;3.734;2023-05-10T13:08:03;29.23;;;20.70;;
57842;SDS011;43673;51.058;3.734;2023-05-10T13:10:30;26.92;;;18.08;;
57842;SDS011;43673;51.058;3.734;2023-05-10T13:12:56;26.23;;;18.10;;
57842;SDS011;43673;51.058;3.734;2023-05-10T13:15:23;28.15;;;19.65;;
57842;SDS011;43673;51.058;3.734;2023-05-10T13:17:49;26.85;;;19.05;;
57842;SDS011;43673;51.058;3.734;2023-05-10T13:20:15;26.30;;;20.27;;
57842;SDS011;43673;51.058;3.734;2023-05-10T13:22:41;29.80;;;20.17;;
57842;SDS011;43673;51.058;3.734;2023-05-10T13:25:08;32.50;;;21.80;;
57842;SDS011;43673;51.058;3.734;2023-05-10T13:27:43;30.00;;;19.58;;
57842;SDS011;43673;51.058;3.734;2023-05-10T13:30:15;26.98;;;19.52;;
57842;SDS011;43673;51.058;3.734;2023-05-10T13:32:41;31.27;;;20.77;;
57842;SDS011;43673;51.058;3.734;2023-05-10T13:35:14;31.88;;;19.27;;
57842;SDS011;43673;51.058;3.734;2023-05-10T13:37:40;25.92;;;16.80;;
57842;SDS011;43673;51.058;3.734;2023-05-10T13:40:06;30.13;;;18.92;;
57842;SDS011;43673;51.058;3.734;2023-05-10T13:42:32;30.13;;;18.75;;
57842;SDS011;43673;51.058;3.734;2023-05-10T13:45:10;29.15;;;17.85;;
57842;SDS011;43673;51.058;3.734;2023-05-10T13:47:37;29.13;;;17.90;;
57842;SDS011;43673;51.058;3.734;2023-05-10T13:50:14;29.85;;;20.38;;
57842;SDS011;43673;51.058;3.734;2023-05-10T13:53:01;29.98;;;18.98;;
57842;SDS011;43673;51.058;3.734;2023-05-10T13:55:43;29.25;;;18.48;;
57842;SDS011;43673;51.058;3.734;2023-05-10T13:58:25;32.50;;;19.75;;
57842;SDS011;43673;51.058;3.734;2023-05-10T14:00:52;35.05;;;20.30;;
57842;SDS011;43673;51.058;3.734;2023-05-10T14:03:18;25.08;;;18.35;;
57842;SDS011;43673;51.058;3.734;2023-05-10T14:08:34;31.23;;;20.70;;
57842;SDS011;43673;51.058;3.734;2023-05-10T14:11:00;33.80;;;19.05;;
57842;SDS011;43673;51.058;3.734;2023-05-10T14:13:26;30.67;;;19.00;;
57842;SDS011;43673;51.058;3.734;2023-05-10T14:15:53;38.40;;;20.33;;
57842;SDS011;43673;51.058;3.734;2023-05-10T14:18:19;35.53;;;22.58;;
57842;SDS011;43673;51.058;3.734;2023-05-10T14:20:45;33.55;;;21.25;;
57842;SDS011;43673;51.058;3.734;2023-05-10T14:23:11;37.15;;;21.88;;
57842;SDS011;43673;51.058;3.734;2023-05-10T14:25:37;32.13;;;19.77;;
57842;SDS011;43673;51.058;3.734;2023-05-10T14:28:05;31.23;;;19.52;;
57842;SDS011;43673;51.058;3.734;2023-05-10T14:30:31;35.90;;;20.75;;
57842;SDS011;43673;51.058;3.734;2023-05-10T14:32:57;36.45;;;20.13;;
57842;SDS011;43673;51.058;3.734;2023-05-10T14:35:23;33.72;;;20.52;;
57842;SDS011;43673;51.058;3.734;2023-05-10T14:37:49;31.25;;;20.67;;
57842;SDS011;43673;51.058;3.734;2023-05-10T14:40:15;31.67;;;18.33;;
57842;SDS011;43673;51.058;3.734;2023-05-10T14:42:42;27.27;;;18.85;;
57842;SDS011;43673;51.058;3.734;2023-05-10T14:45:08;30.05;;;17.90;;
57842;SDS011;43673;51.058;3.734;2023-05-10T14:47:34;37.80;;;18.13;;
57842;SDS011;43673;51.058;3.734;2023-05-10T14:50:00;32.15;;;20.05;;
57842;SDS011;43673;51.058;3.734;2023-05-10T14:52:26;35.42;;;19.40;;
57842;SDS011;43673;51.058;3.734;2023-05-10T14:54:51;31.58;;;16.40;;
57842;SDS011;43673;51.058;3.734;2023-05-10T14:57:17;24.10;;;15.77;;
57842;SDS011;43673;51.058;3.734;2023-05-10T14:59:43;32.60;;;15.98;;
57842;SDS011;43673;51.058;3.734;2023-05-10T15:02:08;29.27;;;17.65;;
57842;SDS011;43673;51.058;3.734;2023-05-10T15:04:35;28.77;;;15.65;;
57842;SDS011;43673;51.058;3.734;2023-05-10T15:07:01;25.20;;;13.95;;
57842;SDS011;43673;51.058;3.734;2023-05-10T15:09:26;24.83;;;13.98;;
57842;SDS011;43673;51.058;3.734;2023-05-10T15:11:52;26.63;;;15.88;;
57842;SDS011;43673;51.058;3.734;2023-05-10T15:14:18;21.65;;;13.50;;
57842;SDS011;43673;51.058;3.734;2023-05-10T15:16:44;18.95;;;12.68;;
57842;SDS011;43673;51.058;3.734;2023-05-10T15:19:10;27.02;;;11.80;;
57842;SDS011;43673;51.058;3.734;2023-05-10T15:21:35;22.15;;;11.18;;
57842;SDS011;43673;51.058;3.734;2023-05-10T15:24:06;28.45;;;11.45;;
57842;SDS011;43673;51.058;3.734;2023-05-10T15:26:33;21.30;;;9.40;;
57842;SDS011;43673;51.058;3.734;2023-05-10T15:28:58;13.88;;;7.82;;
57842;SDS011;43673;51.058;3.734;2023-05-10T15:31:24;20.73;;;7.60;;
57842;SDS011;43673;51.058;3.734;2023-05-10T15:33:50;14.73;;;9.07;;
57842;SDS011;43673;51.058;3.734;2023-05-10T15:36:16;14.85;;;8.02;;